Athol, Pennsylvania
Current Conditions -  °F | °C
As of 3:54 PM on Tuesday 21 Oct 2014 (Local Time) from KPTW Reporting Station
Overcast Overcast  
Wind Chill: 66°   Ceiling: 4800
Heat Index: 66°   Visibility: 10mi
Dew Point: 47°   Wind: 6mph
Humidity: 50%   Direction: 320°NW
Pressure: 29.82"   Gusts: NA
Location:  40.3194°N, 75.7364°W
Report Text: KPTW 211954Z AUTO 32005KT 10SM BKN048 OVC060 19/08 A2982 RMK AO2 SLP096 T01890083
Loading
Personal Weather Stations






























Interactive Weather Map New forecast layout! Learn more

10-Day Weather Forecast

Advertisements
Track Severe Weather on mobile